Tropical Cyclones
[Index]
Main Index Home Page Stock Weather Photos Extreme Storms Discussion Storm News and Storm Chasing Reports Tropical Cyclones / Hurricanes / Typhoons Weather Data and Links Wild Fires / Bushfires Weather Observation Techniques Weather Picture Catalogue Tornado Pictures and Reports Stock Video Footage and DVDs for sale
Season 1963-1964 Tropical Cyclone 196410 Track Map
Season 1963-1964 Summaries: [BoM-AU] [JTWC-AU] [JTWC-SIO] [JTWC-SPAC] [JTWC-SH]
<<- Previous TC | JTWC 1963-1964 Season | Next TC ->>

click for intensity scale information  Lat/long Grid: Show Hide

 Date Labels: Show Hide

Joint Typhoon Warning Centre Cyclone Data

Name: 196410
Number: 512 / 6410

20 Jan 1964 00:00 UTC to 28 Jan 1964 00:00 UTC

    date/time    lat    long     hPa   cat  kts
1964-01-20 00   13.3   167.8W                             
1964-01-20 06   14.0   168.7W                             
1964-01-20 12   14.7   169.5W                             
1964-01-20 18   15.3   170.4W                             
1964-01-21 00   16.0   171.1W                             
1964-01-21 06   16.7   171.4W                             
1964-01-21 12   17.5   171.6W                             
1964-01-21 18   18.2   171.8W                             
1964-01-22 00   18.8   172.0W                             
1964-01-22 06   19.4   172.1W                             
1964-01-22 12   20.0   172.1W                             
1964-01-22 18   20.5   172.1W                             
1964-01-23 00   20.9   172.1W                             
1964-01-23 06   21.3   172.1W                             
1964-01-23 12   21.6   172.2W                             
1964-01-23 18   21.9   172.6W                             
1964-01-24 00   22.1   173.0W                             
1964-01-24 06   22.2   173.4W                             
1964-01-24 12   22.3   173.7W                             
1964-01-24 18   22.7   173.4W                             
1964-01-25 00   22.9   173.4W                             
1964-01-25 06   22.7   174.5W                             
1964-01-25 12   22.4   175.6W                             
1964-01-25 18   22.0   176.8W                             
1964-01-26 00   21.7   177.6W                             
1964-01-26 06   21.4   177.0W                             
1964-01-26 12   21.1   175.9W                             
1964-01-26 18   21.1   174.9W                             
1964-01-27 00   21.2   174.0W                             
1964-01-27 06   21.4   173.1W                             
1964-01-27 12   21.6   172.2W                             
1964-01-27 18   22.0   171.4W                             
1964-01-28 00   22.6   170.6W                             
Winds are 1-min average.

Tropical cyclone tracks developed by Michael Bath using data from the Joint Typhoon Warning Centre Best Tracks and Google Maps.


[Australian Severe Weather index] [Copyright Notice] [Email Contacts] [Search This Site] [Privacy Policy]
Document: tropical_cyclone_196410.htm Updated: 18 September 2016